Time;durP1;ratioP1;P1;durP2;ratioP2;P2;SDS_P1;SDS_P2;PMS_P1;PMS_P2;Temp;Humidity;BMP_temperature;BMP_pressure;BME280_temperature;BME280_humidity;BME280_pressure;Samples;Min_cycle;Max_cycle;Signal;HPM_P1;HPM_P2
2021/08/27 00:00:37;;;;;;;2.33;2.10;;;13.00;97.30;;;;;;5012142;28;20537;-84
2021/08/27 00:03:03;;;;;;;4.33;2.30;;;13.00;97.30;;;;;;4995216;28;20308;-84
2021/08/27 00:05:28;;;;;;;2.50;2.10;;;13.00;97.30;;;;;;4994705;28;20185;-85
2021/08/27 00:07:54;;;;;;;4.53;2.50;;;13.00;97.30;;;;;;4994025;28;20181;-85
2021/08/27 00:10:20;;;;;;;4.07;3.07;;;13.00;97.30;;;;;;4993667;28;20185;-85
2021/08/27 00:12:45;;;;;;;2.57;2.27;;;13.00;97.30;;;;;;4994429;28;20447;-86
2021/08/27 00:15:11;;;;;;;4.50;2.20;;;13.00;97.30;;;;;;4993973;28;20205;-85
2021/08/27 00:17:37;;;;;;;3.83;2.47;;;12.90;97.30;;;;;;4994543;28;20181;-86
2021/08/27 00:20:05;;;;;;;4.17;2.30;;;12.90;97.30;;;;;;4995227;28;20251;-86
2021/08/27 00:22:30;;;;;;;7.60;2.20;;;12.90;97.30;;;;;;4994949;28;20271;-85
2021/08/27 00:24:56;;;;;;;5.40;2.10;;;12.90;97.30;;;;;;4995222;28;20427;-88
2021/08/27 00:27:22;;;;;;;3.80;2.47;;;12.90;97.30;;;;;;5012658;28;20181;-86
2021/08/27 00:29:47;;;;;;;2.40;2.20;;;12.90;97.30;;;;;;4994550;28;20659;-88
2021/08/27 00:32:13;;;;;;;4.77;2.20;;;12.90;97.30;;;;;;4994459;28;20233;-86
2021/08/27 00:34:38;;;;;;;5.50;2.50;;;12.90;97.30;;;;;;5011905;28;20606;-85
2021/08/27 00:37:05;;;;;;;2.50;2.30;;;12.90;97.30;;;;;;4993427;28;20201;-87
2021/08/27 00:39:31;;;;;;;4.70;2.70;;;12.90;97.30;;;;;;5011154;28;20176;-86
2021/08/27 00:41:56;;;;;;;5.80;2.43;;;12.90;97.30;;;;;;4994569;28;20485;-87
2021/08/27 00:44:22;;;;;;;6.40;2.90;;;12.90;97.30;;;;;;5014866;28;20510;-85
2021/08/27 00:46:48;;;;;;;3.63;2.80;;;12.90;97.30;;;;;;4997530;28;20208;-86
2021/08/27 00:49:15;;;;;;;4.37;2.80;;;12.90;97.30;;;;;;4985116;28;20181;-87
2021/08/27 00:51:40;;;;;;;6.67;2.73;;;12.90;97.30;;;;;;4978825;28;20830;-86
2021/08/27 00:54:06;;;;;;;3.50;2.20;;;12.90;97.30;;;;;;4978817;28;20460;-86
2021/08/27 00:56:32;;;;;;;9.03;2.23;;;12.90;97.30;;;;;;4978865;28;20433;-86
2021/08/27 00:59:01;;;;;;;5.87;2.70;;;12.90;97.30;;;;;;4978485;28;20185;-85
2021/08/27 01:01:27;;;;;;;5.23;2.53;;;12.90;97.30;;;;;;4977863;28;20201;-85
2021/08/27 01:03:57;;;;;;;8.40;2.90;;;12.90;97.30;;;;;;4978792;28;20427;-85
2021/08/27 01:06:37;;;;;;;3.93;2.10;;;12.90;97.30;;;;;;4977757;28;20476;-85
2021/08/27 01:09:07;;;;;;;10.77;2.33;;;12.90;97.30;;;;;;4977434;28;20421;-86
2021/08/27 01:11:43;;;;;;;3.67;2.07;;;12.90;97.30;;;;;;4977100;28;20437;-86
2021/08/27 01:14:20;;;;;;;5.57;2.13;;;12.90;97.30;;;;;;4977676;28;20464;-85
2021/08/27 01:16:58;;;;;;;4.70;2.60;;;12.90;97.30;;;;;;4977361;28;20464;-84
2021/08/27 01:19:51;;;;;;;9.60;2.50;;;12.90;97.30;;;;;;4978587;28;20508;-85
2021/08/27 01:22:43;;;;;;;6.10;2.57;;;12.90;97.30;;;;;;4998479;23;20984;-82
2021/08/27 01:25:11;;;;;;;3.23;2.20;;;12.90;97.30;;;;;;4977241;28;20424;-82
2021/08/27 01:27:38;;;;;;;3.47;2.60;;;12.90;97.30;;;;;;4977720;28;20421;-82
2021/08/27 01:30:09;;;;;;;3.93;2.30;;;12.90;97.30;;;;;;4977618;28;20448;-81
2021/08/27 01:32:43;;;;;;;4.10;2.60;;;12.90;97.30;;;;;;4976751;28;20520;-82
2021/08/27 01:35:10;;;;;;;4.53;2.70;;;12.90;97.30;;;;;;4976275;28;20457;-82
2021/08/27 01:37:37;;;;;;;3.23;2.00;;;12.90;97.30;;;;;;4976207;28;20521;-81
2021/08/27 01:40:04;;;;;;;9.10;2.30;;;12.90;97.30;;;;;;4975959;28;20422;-82
2021/08/27 01:42:31;;;;;;;3.50;2.37;;;12.90;97.30;;;;;;4977435;28;20441;-81
2021/08/27 01:44:58;;;;;;;4.43;2.80;;;12.90;97.30;;;;;;4976225;28;20419;-82
2021/08/27 01:47:31;;;;;;;5.93;2.60;;;12.90;97.30;;;;;;4977401;28;20413;-81
2021/08/27 01:49:57;;;;;;;5.00;3.20;;;12.90;97.30;;;;;;4977697;28;20428;-81
2021/08/27 01:52:23;;;;;;;3.90;2.50;;;12.90;97.30;;;;;;4977015;28;20442;-81
2021/08/27 01:54:50;;;;;;;7.73;2.93;;;13.00;97.30;;;;;;4976341;28;20454;-83
2021/08/27 01:57:17;;;;;;;7.63;3.60;;;13.00;97.30;;;;;;4976461;28;20453;-82
2021/08/27 01:59:44;;;;;;;6.77;3.50;;;13.00;97.30;;;;;;4976295;28;20426;-82
2021/08/27 02:02:14;;;;;;;5.97;3.00;;;13.00;97.30;;;;;;4975816;28;20449;-82
2021/08/27 02:04:46;;;;;;;5.60;2.90;;;13.00;97.30;;;;;;4975283;28;20682;-82
2021/08/27 02:07:12;;;;;;;4.60;3.10;;;12.90;97.30;;;;;;4974370;28;20422;-82
2021/08/27 02:09:40;;;;;;;10.33;3.50;;;12.90;97.30;;;;;;4975508;28;20924;-82
2021/08/27 02:12:06;;;;;;;5.60;3.47;;;12.90;97.30;;;;;;4975485;28;20442;-82
2021/08/27 02:14:34;;;;;;;11.53;3.47;;;12.90;97.30;;;;;;4977256;28;20453;-82
2021/08/27 02:16:59;;;;;;;5.23;3.07;;;12.90;97.30;;;;;;4976262;28;20421;-82
2021/08/27 02:19:25;;;;;;;8.60;3.20;;;12.90;97.30;;;;;;4976610;28;20417;-82
2021/08/27 02:21:55;;;;;;;4.67;3.37;;;12.90;97.30;;;;;;4976148;28;20226;-81
2021/08/27 02:24:26;;;;;;;5.80;3.77;;;12.90;97.30;;;;;;4977261;28;20711;-82
2021/08/27 02:26:54;;;;;;;8.50;3.20;;;12.90;97.30;;;;;;4975832;28;20492;-82
2021/08/27 02:29:24;;;;;;;9.13;3.00;;;12.90;97.30;;;;;;4975194;28;20758;-82
2021/08/27 02:31:55;;;;;;;7.63;3.10;;;12.90;97.30;;;;;;4976849;28;20438;-82
2021/08/27 02:34:21;;;;;;;7.00;3.70;;;12.90;97.30;;;;;;4974221;28;20904;-83
2021/08/27 02:36:49;;;;;;;5.70;3.50;;;12.90;97.30;;;;;;4973694;28;20414;-83
2021/08/27 02:39:18;;;;;;;4.40;3.13;;;13.00;97.30;;;;;;4974711;28;20476;-82
2021/08/27 02:41:43;;;;;;;6.60;3.17;;;12.90;97.30;;;;;;4974338;28;20876;-81
2021/08/27 02:44:09;;;;;;;8.13;3.40;;;12.90;97.30;;;;;;4974751;28;20450;-82
2021/08/27 02:46:34;;;;;;;3.97;2.77;;;12.90;97.30;;;;;;4975490;28;20779;-83
2021/08/27 02:49:00;;;;;;;7.17;3.07;;;12.90;97.30;;;;;;4965824;28;20266;-82
2021/08/27 02:51:34;;;;;;;8.57;3.30;;;12.90;97.30;;;;;;4955752;29;20222;-82
2021/08/27 02:54:03;;;;;;;5.07;3.90;;;13.00;97.30;;;;;;4956109;29;20223;-81
2021/08/27 02:56:34;;;;;;;5.20;3.23;;;13.00;97.30;;;;;;4955712;29;20422;-83
2021/08/27 02:59:00;;;;;;;8.90;3.30;;;13.00;97.30;;;;;;4955621;29;20922;-82
2021/08/27 03:01:36;;;;;;;6.40;4.00;;;13.00;97.30;;;;;;4956228;28;20427;-82
2021/08/27 03:04:13;;;;;;;4.43;3.10;;;13.00;97.30;;;;;;4954025;28;20518;-82
2021/08/27 03:06:56;;;;;;;4.20;2.80;;;13.00;97.30;;;;;;4954061;29;20414;-83
2021/08/27 03:09:24;;;;;;;4.63;2.93;;;13.00;97.30;;;;;;4954816;29;20437;-83
2021/08/27 03:12:02;;;;;;;6.07;3.20;;;13.00;97.30;;;;;;4954872;29;20442;-82
2021/08/27 03:14:33;;;;;;;7.20;3.53;;;13.00;97.30;;;;;;4954977;29;20458;-82
2021/08/27 03:17:05;;;;;;;6.70;3.13;;;13.10;97.30;;;;;;4956352;29;20510;-82
2021/08/27 03:19:56;;;;;;;7.63;3.30;;;13.00;97.30;;;;;;4956541;29;20419;-82
2021/08/27 03:22:26;;;;;;;7.70;3.17;;;13.00;97.30;;;;;;4965995;28;20470;-82
2021/08/27 03:25:00;;;;;;;10.03;3.83;;;13.10;97.30;;;;;;4975607;28;20458;-82
2021/08/27 03:27:30;;;;;;;6.53;3.87;;;13.10;97.30;;;;;;4975842;28;20424;-82
2021/08/27 03:30:01;;;;;;;5.93;3.27;;;13.00;97.30;;;;;;4975055;28;20465;-82
2021/08/27 03:32:29;;;;;;;4.30;3.10;;;13.00;97.30;;;;;;4974251;28;20489;-81
2021/08/27 03:34:55;;;;;;;5.80;3.47;;;13.00;97.30;;;;;;4973306;28;20465;-82
2021/08/27 03:37:21;;;;;;;10.77;4.20;;;13.00;97.30;;;;;;4973797;28;20423;-82
2021/08/27 03:39:48;;;;;;;7.37;4.37;;;13.00;97.30;;;;;;4974338;28;20422;-81
2021/08/27 03:42:15;;;;;;;6.07;3.97;;;13.00;97.30;;;;;;4973248;28;20442;-83
2021/08/27 03:44:42;;;;;;;7.13;4.10;;;13.00;97.30;;;;;;4974656;28;20437;-82
2021/08/27 03:47:08;;;;;;;8.33;5.00;;;13.00;97.30;;;;;;4974111;28;20449;-83
2021/08/27 03:49:34;;;;;;;11.50;4.57;;;13.00;97.30;;;;;;4974110;28;21016;-83
2021/08/27 03:52:01;;;;;;;10.20;5.03;;;13.00;97.30;;;;;;4973673;28;20450;-82
2021/08/27 03:54:27;;;;;;;6.23;4.90;;;13.00;97.30;;;;;;4973259;28;20829;-83
2021/08/27 03:56:53;;;;;;;9.97;5.43;;;13.00;97.30;;;;;;4975841;28;20961;-83
2021/08/27 03:59:21;;;;;;;8.93;4.90;;;13.00;97.30;;;;;;4974055;28;20441;-82
2021/08/27 04:01:47;;;;;;;10.30;5.30;;;13.00;97.30;;;;;;4973136;28;20477;-82
2021/08/27 04:04:20;;;;;;;12.20;6.80;;;13.00;97.30;;;;;;4975137;28;20450;-82
2021/08/27 04:07:00;;;;;;;13.97;4.87;;;13.00;97.30;;;;;;4973709;28;20441;-82
2021/08/27 04:09:27;;;;;;;8.27;4.87;;;13.00;97.30;;;;;;4957908;28;20485;-82
2021/08/27 04:11:53;;;;;;;9.57;5.50;;;13.00;97.30;;;;;;4974218;28;20442;-82
2021/08/27 04:14:19;;;;;;;11.30;4.67;;;13.00;97.30;;;;;;4974134;28;20449;-82
2021/08/27 04:16:45;;;;;;;8.67;4.40;;;13.00;97.30;;;;;;4975830;28;20476;-82
2021/08/27 04:19:12;;;;;;;8.47;5.10;;;13.00;97.30;;;;;;4977555;28;20178;-83
2021/08/27 04:21:38;;;;;;;9.47;5.80;;;13.00;97.30;;;;;;4977675;28;20222;-83
2021/08/27 04:24:04;;;;;;;16.80;6.60;;;13.00;97.30;;;;;;4976477;28;20846;-83
2021/08/27 04:26:29;;;;;;;10.00;6.30;;;12.90;97.30;;;;;;4976493;28;20422;-83
2021/08/27 04:28:55;;;;;;;12.03;6.50;;;13.00;97.30;;;;;;4976240;28;20796;-83
2021/08/27 04:31:20;;;;;;;14.40;6.33;;;13.00;97.30;;;;;;4976163;28;20260;-82
2021/08/27 04:33:46;;;;;;;16.03;6.17;;;12.90;97.30;;;;;;4975624;28;20186;-83
2021/08/27 04:36:11;;;;;;;13.27;5.93;;;12.90;97.30;;;;;;4975823;28;20174;-82
2021/08/27 04:38:37;;;;;;;16.57;6.40;;;12.90;97.30;;;;;;4975913;28;20623;-82
2021/08/27 04:41:02;;;;;;;17.67;6.60;;;12.90;97.30;;;;;;4977800;28;20175;-82
2021/08/27 04:43:28;;;;;;;10.77;6.70;;;12.90;97.30;;;;;;4976346;28;20229;-81
2021/08/27 04:45:53;;;;;;;12.93;6.67;;;12.90;97.30;;;;;;4977133;28;20179;-83
2021/08/27 04:48:22;;;;;;;18.10;8.10;;;12.90;97.30;;;;;;4972371;28;20442;-83
2021/08/27 04:50:47;;;;;;;13.17;7.10;;;12.80;97.30;;;;;;4958199;29;20184;-83
2021/08/27 04:53:13;;;;;;;13.47;7.50;;;12.80;97.30;;;;;;4960269;28;20810;-83
2021/08/27 04:55:38;;;;;;;16.77;7.43;;;12.80;97.30;;;;;;4958750;29;20214;-83
2021/08/27 04:58:04;;;;;;;10.90;7.00;;;12.80;97.30;;;;;;4958249;29;20235;-83
2021/08/27 05:00:30;;;;;;;14.13;7.80;;;12.80;97.30;;;;;;4958070;29;20627;-83
2021/08/27 05:02:56;;;;;;;17.73;7.93;;;12.80;97.30;;;;;;4957245;29;20207;-83
2021/08/27 05:05:21;;;;;;;14.10;7.80;;;12.80;97.30;;;;;;4956509;29;20470;-83
2021/08/27 05:07:47;;;;;;;10.50;6.40;;;12.80;97.30;;;;;;4957146;29;20180;-83
2021/08/27 05:10:13;;;;;;;15.30;7.70;;;12.80;97.30;;;;;;4957189;29;20447;-82
2021/08/27 05:12:38;;;;;;;15.90;7.90;;;12.80;97.30;;;;;;4956763;29;20576;-83
2021/08/27 05:15:05;;;;;;;11.70;7.20;;;12.80;97.30;;;;;;4957747;29;20447;-82
2021/08/27 05:17:31;;;;;;;16.70;7.40;;;12.80;97.30;;;;;;4958113;29;20179;-82
2021/08/27 05:19:56;;;;;;;9.97;6.63;;;12.80;97.30;;;;;;4959227;28;20415;-83
2021/08/27 05:22:22;;;;;;;16.10;7.17;;;12.70;97.30;;;;;;4969413;28;20230;-82
2021/08/27 05:24:47;;;;;;;11.00;6.33;;;12.80;97.30;;;;;;4977266;28;20508;-83
2021/08/27 05:27:13;;;;;;;12.63;7.30;;;12.70;97.30;;;;;;4977969;28;20285;-83
2021/08/27 05:29:38;;;;;;;12.07;6.47;;;12.70;97.30;;;;;;4977750;28;20175;-82
2021/08/27 05:32:04;;;;;;;15.70;6.63;;;12.70;97.30;;;;;;4976954;28;20201;-83
2021/08/27 05:34:30;;;;;;;9.50;6.43;;;12.70;97.30;;;;;;4975557;28;20199;-83
2021/08/27 05:36:55;;;;;;;17.50;8.13;;;12.70;97.30;;;;;;4977023;28;20513;-83
2021/08/27 05:39:21;;;;;;;15.70;7.77;;;12.70;97.30;;;;;;4977914;28;20222;-82
2021/08/27 05:41:46;;;;;;;16.40;7.53;;;12.70;97.30;;;;;;4976568;28;20253;-83
2021/08/27 05:44:12;;;;;;;15.93;7.60;;;12.70;97.30;;;;;;4976812;28;20186;-82
2021/08/27 05:46:37;;;;;;;20.33;8.53;;;12.70;97.30;;;;;;4978332;28;20178;-82
2021/08/27 05:49:03;;;;;;;14.07;7.80;;;12.70;97.30;;;;;;4977401;28;20179;-83
2021/08/27 05:51:29;;;;;;;16.73;8.20;;;12.70;97.30;;;;;;4977070;28;20198;-81
2021/08/27 05:53:54;;;;;;;17.00;8.80;;;12.70;97.30;;;;;;4977273;28;20426;-83
2021/08/27 05:56:20;;;;;;;17.90;8.43;;;12.70;97.30;;;;;;4976653;28;20171;-82
2021/08/27 05:58:47;;;;;;;20.93;8.70;;;12.70;97.30;;;;;;4975993;28;20221;-82
2021/08/27 06:01:14;;;;;;;20.87;8.70;;;12.70;97.30;;;;;;4976026;28;20258;-83
2021/08/27 06:03:40;;;;;;;17.50;7.90;;;12.80;97.30;;;;;;4975433;28;20409;-83
2021/08/27 06:06:05;;;;;;;14.80;8.40;;;12.80;97.30;;;;;;4977079;28;20425;-83
2021/08/27 06:08:31;;;;;;;18.37;8.40;;;12.80;97.30;;;;;;4976667;28;20232;-83
2021/08/27 06:10:56;;;;;;;17.90;8.90;;;12.80;97.30;;;;;;4975630;28;20220;-84
2021/08/27 06:13:22;;;;;;;15.30;8.73;;;12.80;97.30;;;;;;4975667;28;20196;-83
2021/08/27 06:15:47;;;;;;;12.67;7.80;;;12.80;97.30;;;;;;4976183;28;20198;-83
2021/08/27 06:18:13;;;;;;;16.67;8.70;;;12.80;97.30;;;;;;4976872;28;20556;-82
2021/08/27 06:20:39;;;;;;;16.03;8.43;;;12.80;97.30;;;;;;4976659;28;20314;-82
2021/08/27 06:23:04;;;;;;;19.47;9.03;;;12.80;97.30;;;;;;4976246;28;20249;-83
2021/08/27 06:25:30;;;;;;;18.77;8.33;;;12.80;97.30;;;;;;4975173;28;20197;-83
2021/08/27 06:27:55;;;;;;;16.50;8.40;;;12.80;97.30;;;;;;4975077;28;20191;-83
2021/08/27 06:30:21;;;;;;;15.10;8.80;;;12.80;97.30;;;;;;4974713;28;20192;-84
2021/08/27 06:32:46;;;;;;;20.23;9.03;;;12.80;97.30;;;;;;4974695;28;20630;-83
2021/08/27 06:35:12;;;;;;;18.73;8.27;;;12.80;97.30;;;;;;4974869;28;20669;-82
2021/08/27 06:40:22;;;;;;;14.67;7.60;;;12.80;97.30;;;;;;4976774;28;20413;-83
2021/08/27 06:42:48;;;;;;;16.33;8.17;;;12.80;97.30;;;;;;4974370;28;20433;-82
2021/08/27 06:45:13;;;;;;;15.37;8.00;;;12.80;97.30;;;;;;4974559;28;20182;-81
2021/08/27 06:47:39;;;;;;;18.87;8.23;;;12.80;97.30;;;;;;4975209;28;20201;-83
2021/08/27 06:50:05;;;;;;;14.93;8.03;;;12.70;97.30;;;;;;4976063;28;20186;-82
2021/08/27 06:52:31;;;;;;;16.50;7.30;;;12.80;97.30;;;;;;4976487;28;20256;-83
2021/08/27 06:54:57;;;;;;;13.43;7.40;;;12.80;97.30;;;;;;4979366;28;20454;-83
2021/08/27 06:57:23;;;;;;;14.93;7.60;;;12.80;97.30;;;;;;4982720;28;20178;-84
2021/08/27 06:59:48;;;;;;;11.20;5.87;;;12.80;97.30;;;;;;4985552;28;20484;-82
2021/08/27 07:02:14;;;;;;;15.70;6.83;;;12.80;97.30;;;;;;4984187;28;20218;-83
2021/08/27 07:04:39;;;;;;;13.83;7.20;;;12.80;97.30;;;;;;4976333;28;20190;-83
2021/08/27 07:07:05;;;;;;;15.00;6.70;;;12.80;97.30;;;;;;4978321;28;20192;-83
2021/08/27 07:09:30;;;;;;;15.77;6.63;;;12.80;97.30;;;;;;4978885;28;20560;-83
2021/08/27 07:11:56;;;;;;;10.93;6.30;;;12.80;97.30;;;;;;4980109;28;20570;-82
2021/08/27 07:14:21;;;;;;;15.33;6.30;;;12.80;97.30;;;;;;4975857;28;20253;-82
2021/08/27 07:16:47;;;;;;;11.63;6.30;;;12.80;97.30;;;;;;4975965;28;20182;-82
2021/08/27 07:19:12;;;;;;;10.93;6.63;;;12.90;97.30;;;;;;4976040;28;20681;-82
2021/08/27 07:21:38;;;;;;;13.23;5.50;;;12.80;97.30;;;;;;4977182;28;20260;-82
2021/08/27 07:24:03;;;;;;;10.40;6.13;;;12.90;97.30;;;;;;5012557;23;20635;-85
2021/08/27 07:26:29;;;;;;;10.03;5.67;;;12.90;97.30;;;;;;5034055;28;20169;-84
2021/08/27 07:28:54;;;;;;;9.87;5.23;;;12.90;97.30;;;;;;5014867;28;20267;-86
2021/08/27 07:31:20;;;;;;;9.93;4.93;;;12.90;97.30;;;;;;5015826;28;20177;-86
2021/08/27 07:33:45;;;;;;;10.13;5.70;;;12.90;97.30;;;;;;5014628;28;20192;-85
2021/08/27 07:36:11;;;;;;;7.23;4.80;;;12.90;97.30;;;;;;5014373;28;20244;-86
2021/08/27 07:38:37;;;;;;;7.20;5.00;;;12.90;97.30;;;;;;5013525;28;20176;-86
2021/08/27 07:41:03;;;;;;;8.47;4.80;;;12.90;97.30;;;;;;5014974;28;20176;-87
2021/08/27 07:43:28;;;;;;;8.20;5.20;;;12.90;97.30;;;;;;5014169;28;20442;-86
2021/08/27 07:45:57;;;;;;;8.60;4.73;;;12.90;97.30;;;;;;5013786;28;20199;-85
2021/08/27 07:48:27;;;;;;;6.00;4.30;;;12.90;97.30;;;;;;5033599;28;20185;-87
2021/08/27 07:50:52;;;;;;;7.30;4.03;;;12.90;97.30;;;;;;5015931;28;20432;-85
2021/08/27 07:53:18;;;;;;;10.30;4.63;;;12.90;97.30;;;;;;5037949;28;20419;-86
2021/08/27 07:55:44;;;;;;;14.20;4.70;;;12.90;97.30;;;;;;5020238;28;20192;-85
2021/08/27 07:58:09;;;;;;;7.50;4.07;;;12.90;97.30;;;;;;5020040;28;20204;-86
2021/08/27 08:00:35;;;;;;;6.67;4.00;;;12.90;97.30;;;;;;5018473;28;20173;-87
2021/08/27 08:03:00;;;;;;;8.20;4.30;;;13.00;97.30;;;;;;5036572;28;20173;-85
2021/08/27 08:05:26;;;;;;;9.20;4.07;;;13.00;97.30;;;;;;5018682;28;20709;-85
2021/08/27 08:07:52;;;;;;;7.73;4.33;;;13.00;97.30;;;;;;5019335;28;20545;-87
2021/08/27 08:10:18;;;;;;;7.90;3.97;;;13.00;97.30;;;;;;5016614;28;20419;-86
2021/08/27 08:12:43;;;;;;;4.87;3.80;;;13.00;97.30;;;;;;5017340;28;20168;-87
2021/08/27 08:15:09;;;;;;;4.40;3.17;;;13.00;97.30;;;;;;5035590;28;20212;-86
2021/08/27 08:17:35;;;;;;;11.00;4.77;;;13.00;97.30;;;;;;5017823;28;20173;-87
2021/08/27 08:20:00;;;;;;;4.80;3.37;;;13.00;97.30;;;;;;5017783;28;20520;-86
2021/08/27 08:22:27;;;;;;;6.90;4.50;;;13.00;97.30;;;;;;5018989;28;20201;-88
2021/08/27 08:24:52;;;;;;;5.87;3.13;;;13.10;97.30;;;;;;5018488;28;20540;-86
2021/08/27 08:27:18;;;;;;;5.70;3.83;;;13.10;97.30;;;;;;5019574;28;20181;-86
2021/08/27 08:29:44;;;;;;;4.97;3.10;;;13.10;97.30;;;;;;5018108;28;20259;-87
2021/08/27 08:32:10;;;;;;;10.40;4.00;;;13.10;97.30;;;;;;5017978;28;20725;-86
2021/08/27 08:34:35;;;;;;;4.63;3.33;;;13.10;97.30;;;;;;5017864;28;20205;-86
2021/08/27 08:37:01;;;;;;;4.10;2.70;;;13.10;97.30;;;;;;5017997;28;20415;-88
2021/08/27 08:39:27;;;;;;;5.70;3.10;;;13.10;97.30;;;;;;5017948;28;20271;-86
2021/08/27 08:41:54;;;;;;;6.17;3.90;;;13.00;97.30;;;;;;5016555;28;20414;-87
2021/08/27 08:44:19;;;;;;;5.27;3.20;;;13.00;97.30;;;;;;5035038;28;20220;-86
2021/08/27 08:46:47;;;;;;;8.20;3.17;;;13.00;97.30;;;;;;5034747;28;20960;-86
2021/08/27 08:49:14;;;;;;;5.43;3.20;;;13.00;97.30;;;;;;5004176;28;20690;-88
2021/08/27 08:51:49;;;;;;;5.50;3.20;;;13.00;97.30;;;;;;4997633;28;20416;-86
2021/08/27 08:54:17;;;;;;;6.23;3.30;;;13.00;97.30;;;;;;4998490;28;20817;-87
2021/08/27 08:56:43;;;;;;;4.87;3.13;;;13.10;97.30;;;;;;4998568;28;20419;-86
2021/08/27 08:59:10;;;;;;;4.77;3.10;;;13.10;97.30;;;;;;4997947;28;20503;-86
2021/08/27 09:01:36;;;;;;;3.87;2.90;;;13.10;97.30;;;;;;4998081;28;20412;-88
2021/08/27 09:04:03;;;;;;;8.00;2.87;;;13.10;97.30;;;;;;5013821;28;20438;-86
2021/08/27 09:06:30;;;;;;;3.90;2.67;;;13.20;97.30;;;;;;4997768;28;20219;-88
2021/08/27 09:08:59;;;;;;;5.30;3.00;;;13.20;97.30;;;;;;4997110;28;20791;-87
2021/08/27 09:11:27;;;;;;;3.87;2.63;;;13.20;97.30;;;;;;5014672;28;20411;-87
2021/08/27 09:13:55;;;;;;;4.47;3.10;;;13.20;97.30;;;;;;5014157;28;20874;-88
2021/08/27 09:16:27;;;;;;;5.33;3.10;;;13.20;97.30;;;;;;4996718;28;20424;-87
2021/08/27 09:18:53;;;;;;;5.50;2.50;;;13.20;97.30;;;;;;4997772;28;20491;-87
2021/08/27 09:21:50;;;;;;;7.57;3.37;;;13.20;97.30;;;;;;5014089;28;20439;-87
2021/08/27 09:24:26;;;;;;;5.17;3.10;;;13.20;97.30;;;;;;4997058;28;20464;-87
2021/08/27 09:26:57;;;;;;;3.80;2.60;;;13.20;97.30;;;;;;4998586;28;20515;-88
2021/08/27 09:29:38;;;;;;;7.30;3.27;;;13.30;97.30;;;;;;4997685;28;20451;-87
2021/08/27 09:32:26;;;;;;;5.70;2.83;;;13.30;97.30;;;;;;5015676;28;20435;-88
2021/08/27 09:35:08;;;;;;;7.90;3.27;;;13.30;97.30;;;;;;4996626;28;20545;-88
2021/08/27 09:37:39;;;;;;;5.47;2.87;;;13.30;97.30;;;;;;4996903;28;20419;-86
2021/08/27 09:40:07;;;;;;;8.43;3.60;;;13.30;97.30;;;;;;4996520;28;20412;-88
2021/08/27 09:42:37;;;;;;;6.50;2.90;;;13.30;97.30;;;;;;4996655;28;20931;-88
2021/08/27 09:45:03;;;;;;;8.97;3.03;;;13.30;97.30;;;;;;4995619;28;20472;-87
2021/08/27 09:47:28;;;;;;;4.87;2.70;;;13.30;97.30;;;;;;4996078;28;20946;-87
2021/08/27 09:49:54;;;;;;;3.80;2.57;;;13.30;97.30;;;;;;5015109;28;20860;-86
2021/08/27 09:52:20;;;;;;;4.77;3.17;;;13.20;97.30;;;;;;5015777;28;20181;-87
2021/08/27 09:54:47;;;;;;;5.33;2.90;;;13.30;97.30;;;;;;5015915;28;20224;-87
2021/08/27 09:57:12;;;;;;;3.60;2.60;;;13.30;97.30;;;;;;5034492;28;20412;-87
2021/08/27 09:59:40;;;;;;;3.80;2.90;;;13.30;97.30;;;;;;5016688;28;20941;-86
2021/08/27 10:02:08;;;;;;;5.10;2.97;;;13.30;97.30;;;;;;5034551;28;20691;-86
2021/08/27 10:04:35;;;;;;;5.10;2.20;;;13.20;97.30;;;;;;5016874;28;20440;-88
2021/08/27 10:07:01;;;;;;;4.27;2.57;;;13.30;97.30;;;;;;5015787;28;20422;-88
2021/08/27 10:09:44;;;;;;;4.97;3.00;;;13.30;97.30;;;;;;5016276;28;20434;-86
2021/08/27 10:12:10;;;;;;;4.27;2.60;;;13.30;97.30;;;;;;5016201;28;20419;-86
2021/08/27 10:14:36;;;;;;;3.40;2.50;;;13.40;97.30;;;;;;5015848;28;20466;-86
2021/08/27 10:17:03;;;;;;;4.37;2.73;;;13.40;97.30;;;;;;5015065;28;20412;-87
2021/08/27 10:19:29;;;;;;;3.77;3.00;;;13.40;97.30;;;;;;5015091;28;20411;-86
2021/08/27 10:21:54;;;;;;;5.03;3.67;;;13.40;97.30;;;;;;5015172;28;20419;-86
2021/08/27 10:24:20;;;;;;;4.70;3.17;;;13.50;97.30;;;;;;5015605;28;20620;-86
2021/08/27 10:26:46;;;;;;;2.83;2.37;;;13.50;97.30;;;;;;5015841;28;20182;-86
2021/08/27 10:29:12;;;;;;;4.47;2.97;;;13.50;97.30;;;;;;5015639;28;20678;-87
2021/08/27 10:31:43;;;;;;;4.17;2.53;;;13.60;97.30;;;;;;5016353;28;20481;-86
2021/08/27 10:34:09;;;;;;;7.13;2.90;;;13.70;97.30;;;;;;5016707;28;20275;-86
2021/08/27 10:36:34;;;;;;;3.57;2.70;;;13.70;97.30;;;;;;5018530;28;20416;-86
2021/08/27 10:39:02;;;;;;;3.90;2.73;;;13.70;97.30;;;;;;5028834;28;20446;-86
2021/08/27 10:41:35;;;;;;;4.10;2.50;;;13.70;97.30;;;;;;5027443;28;20177;-86
2021/08/27 10:44:10;;;;;;;2.63;2.23;;;13.80;97.30;;;;;;5025528;28;21176;-86
2021/08/27 10:46:44;;;;;;;3.80;2.17;;;13.80;97.30;;;;;;5016673;28;20463;-87
2021/08/27 10:49:14;;;;;;;4.43;2.70;;;13.80;97.30;;;;;;5014387;28;20420;-86
2021/08/27 10:51:43;;;;;;;4.43;2.57;;;13.80;97.30;;;;;;5015393;28;20421;-86
2021/08/27 10:54:11;;;;;;;4.90;2.77;;;13.80;97.30;;;;;;5032600;28;20431;-86
2021/08/27 10:56:50;;;;;;;3.80;2.67;;;13.90;97.30;;;;;;5015066;28;20505;-86
2021/08/27 10:59:37;;;;;;;5.10;3.40;;;13.90;97.30;;;;;;5032948;28;20421;-86
2021/08/27 11:02:04;;;;;;;3.67;2.90;;;13.90;97.30;;;;;;5015650;28;20944;-86
2021/08/27 11:04:43;;;;;;;11.10;3.30;;;14.00;97.30;;;;;;5015881;28;20442;-86
2021/08/27 11:07:18;;;;;;;4.80;3.00;;;14.10;97.30;;;;;;5016086;28;20411;-86
2021/08/27 11:10:07;;;;;;;7.70;3.60;;;14.10;97.30;;;;;;5015811;28;20846;-86
2021/08/27 11:12:33;;;;;;;10.17;4.00;;;14.10;97.30;;;;;;5014819;28;20416;-86
2021/08/27 11:15:25;;;;;;;8.77;3.60;;;14.20;97.30;;;;;;5015464;28;20532;-87
2021/08/27 11:18:15;;;;;;;4.47;2.93;;;14.30;97.30;;;;;;5006699;28;20242;-86
2021/08/27 11:20:41;;;;;;;5.27;3.40;;;14.30;97.30;;;;;;4995226;28;20414;-87
2021/08/27 11:23:07;;;;;;;4.20;3.00;;;14.40;97.30;;;;;;4993854;28;20408;-88
2021/08/27 11:25:33;;;;;;;6.13;2.87;;;14.50;97.30;;;;;;4993521;28;20228;-87
2021/08/27 11:28:17;;;;;;;5.20;3.10;;;14.50;97.30;;;;;;4994303;28;20761;-87
2021/08/27 11:30:59;;;;;;;4.37;3.00;;;14.50;97.30;;;;;;4995080;28;20601;-86
2021/08/27 11:33:47;;;;;;;5.50;2.90;;;14.60;97.30;;;;;;4994893;28;20450;-88
2021/08/27 11:36:14;;;;;;;7.30;3.00;;;14.80;97.30;;;;;;4995457;28;20470;-87
2021/08/27 11:38:40;;;;;;;4.00;3.10;;;14.90;97.30;;;;;;4995637;28;20409;-86
2021/08/27 11:41:06;;;;;;;4.10;2.70;;;15.00;97.30;;;;;;4996132;28;20424;-86
2021/08/27 11:43:35;;;;;;;4.33;2.90;;;15.00;97.30;;;;;;4995533;28;20439;-87
2021/08/27 11:46:02;;;;;;;4.07;2.53;;;15.10;97.30;;;;;;4995342;28;20451;-88
2021/08/27 11:48:37;;;;;;;4.87;2.37;;;15.30;97.30;;;;;;5001727;28;20784;-89
2021/08/27 11:51:05;;;;;;;5.30;2.60;;;15.40;97.30;;;;;;5032400;28;20663;-88
2021/08/27 11:53:30;;;;;;;4.10;3.17;;;15.50;97.30;;;;;;5014924;28;20878;-88
2021/08/27 11:55:56;;;;;;;4.77;2.20;;;15.50;97.30;;;;;;5031375;28;20450;-87
2021/08/27 11:58:22;;;;;;;3.33;2.50;;;15.50;97.30;;;;;;5004393;28;20174;-88
2021/08/27 12:00:48;;;;;;;2.57;2.20;;;15.40;97.30;;;;;;4996344;28;20173;-88
2021/08/27 12:03:15;;;;;;;4.93;2.80;;;15.40;97.30;;;;;;4995919;28;20419;-87
2021/08/27 12:05:41;;;;;;;4.73;3.23;;;15.30;97.30;;;;;;5019074;28;20199;-86
2021/08/27 12:08:11;;;;;;;3.17;2.50;;;15.20;97.30;;;;;;5001004;28;20506;-87
2021/08/27 12:10:39;;;;;;;3.67;2.50;;;15.10;97.30;;;;;;4995288;28;20420;-87
2021/08/27 12:13:06;;;;;;;1.87;1.70;;;15.10;97.30;;;;;;4995037;28;20787;-87
2021/08/27 12:15:34;;;;;;;4.90;2.70;;;15.10;97.30;;;;;;4995832;28;21000;-87
2021/08/27 12:18:02;;;;;;;8.23;3.10;;;15.20;97.30;;;;;;4997936;28;20804;-86
2021/08/27 12:20:31;;;;;;;3.63;2.80;;;15.30;97.30;;;;;;5011215;28;20438;-86
2021/08/27 12:25:42;;;;;;;3.63;3.00;;;15.60;97.30;;;;;;5016746;28;20471;-86
2021/08/27 12:28:10;;;;;;;3.57;2.63;;;15.70;97.30;;;;;;4996759;28;20428;-86
2021/08/27 12:30:45;;;;;;;3.90;2.80;;;15.70;97.30;;;;;;4993564;28;20470;-86
2021/08/27 12:33:11;;;;;;;3.50;2.83;;;15.70;97.30;;;;;;5020915;28;20499;-87
2021/08/27 12:35:37;;;;;;;3.60;2.73;;;15.60;97.30;;;;;;5011576;28;20542;-85
2021/08/27 12:38:04;;;;;;;2.53;2.10;;;15.60;97.30;;;;;;4996427;28;20205;-86
2021/08/27 12:40:31;;;;;;;3.20;2.30;;;15.50;97.30;;;;;;4998127;28;20424;-86
2021/08/27 12:43:06;;;;;;;3.43;2.20;;;15.50;97.30;;;;;;4998363;28;20492;-87
2021/08/27 12:45:51;;;;;;;3.57;2.33;;;15.60;97.30;;;;;;4998877;28;20423;-87
2021/08/27 12:48:19;;;;;;;5.77;2.83;;;15.80;97.30;;;;;;5003991;28;20411;-87
2021/08/27 12:50:49;;;;;;;2.73;2.47;;;16.20;97.30;;;;;;5017948;28;20418;-87
2021/08/27 12:53:15;;;;;;;4.07;3.03;;;16.50;97.30;;;;;;5035103;28;20403;-86